createdAt,value
2017-07-09T00:00:17.514Z,66.11
2017-07-09T00:00:43.080Z,65.72
2017-07-09T00:01:08.639Z,65.82
2017-07-09T00:01:34.261Z,65.82
2017-07-09T00:01:59.820Z,65.63
2017-07-09T00:02:25.395Z,66.01
2017-07-09T00:02:50.963Z,65.63
2017-07-09T00:03:16.518Z,65.92
2017-07-09T00:03:42.075Z,66.01
2017-07-09T00:04:07.692Z,65.82
2017-07-09T00:04:33.248Z,65.82
2017-07-09T00:04:58.818Z,65.82
2017-07-09T00:05:24.374Z,66.01
2017-07-09T00:05:49.958Z,66.01
2017-07-09T00:06:15.531Z,65.92
2017-07-09T00:06:41.152Z,65.72
2017-07-09T00:07:06.741Z,65.63
2017-07-09T00:07:32.325Z,65.53
2017-07-09T00:07:57.864Z,65.53
2017-07-09T00:08:23.499Z,65.53
2017-07-09T00:08:49.053Z,65.72
2017-07-09T00:09:14.614Z,66.01
2017-07-09T00:09:40.290Z,65.72
2017-07-09T00:10:05.850Z,65.72
2017-07-09T00:10:31.418Z,65.53
2017-07-09T00:10:56.966Z,65.63
2017-07-09T00:11:22.539Z,65.72
2017-07-09T00:11:48.113Z,65.72
2017-07-09T00:12:13.703Z,65.53
2017-07-09T00:12:39.268Z,65.63
2017-07-09T00:13:04.846Z,66.01
2017-07-09T00:13:30.402Z,65.72
2017-07-09T00:13:55.963Z,65.53
2017-07-09T00:14:21.528Z,65.72
2017-07-09T00:14:47.104Z,65.72
2017-07-09T00:15:12.645Z,65.53
2017-07-09T00:15:38.230Z,65.72
2017-07-09T00:16:03.920Z,65.82
2017-07-09T00:16:29.517Z,65.63
2017-07-09T00:16:55.099Z,65.72
2017-07-09T00:17:20.656Z,65.63
2017-07-09T00:17:46.216Z,65.53
2017-07-09T00:18:11.771Z,65.63
2017-07-09T00:18:37.325Z,65.63
2017-07-09T00:19:02.899Z,65.82
2017-07-09T00:19:28.463Z,65.82
2017-07-09T00:19:54.007Z,65.53
2017-07-09T00:20:19.598Z,65.82
2017-07-09T00:20:45.139Z,65.82
2017-07-09T00:21:10.715Z,65.82
2017-07-09T00:21:36.305Z,65.53
2017-07-09T00:22:01.873Z,65.63
2017-07-09T00:22:27.432Z,65.82
2017-07-09T00:22:53.038Z,65.72
2017-07-09T00:23:18.638Z,65.63
2017-07-09T00:23:44.209Z,65.63
2017-07-09T00:24:09.781Z,65.63
2017-07-09T00:24:35.353Z,65.82
2017-07-09T00:25:00.979Z,65.63
2017-07-09T00:25:26.563Z,65.82
2017-07-09T00:25:52.125Z,65.82
2017-07-09T00:26:17.694Z,65.53
2017-07-09T00:26:43.295Z,65.82
2017-07-09T00:27:08.868Z,65.63
2017-07-09T00:27:34.435Z,65.63
2017-07-09T00:28:00.057Z,65.63
2017-07-09T00:28:25.625Z,65.72
2017-07-09T00:28:51.207Z,65.63
2017-07-09T00:29:16.778Z,65.53
2017-07-09T00:29:42.359Z,65.63
2017-07-09T00:30:07.938Z,65.53
2017-07-09T00:30:33.539Z,65.43
2017-07-09T00:30:59.114Z,65.63
2017-07-09T00:31:24.668Z,65.53
2017-07-09T00:31:50.324Z,65.53
2017-07-09T00:32:15.881Z,65.53
2017-07-09T00:32:41.438Z,65.63
2017-07-09T00:33:06.998Z,65.78
2017-07-09T00:33:32.656Z,65.72
2017-07-09T00:33:58.207Z,65.53
2017-07-09T00:34:23.754Z,65.43
2017-07-09T00:34:49.308Z,65.63
2017-07-09T00:35:14.880Z,65.63
2017-07-09T00:35:40.454Z,65.53
2017-07-09T00:36:06.010Z,65.82
2017-07-09T00:36:31.569Z,65.72
2017-07-09T00:36:57.154Z,65.63
2017-07-09T00:37:22.738Z,65.34
2017-07-09T00:37:48.296Z,65.53
2017-07-09T00:38:13.927Z,65.63
2017-07-09T00:38:39.490Z,65.43
2017-07-09T00:39:05.066Z,65.24
2017-07-09T00:39:30.636Z,65.63
2017-07-09T00:39:56.236Z,65.63
2017-07-09T00:40:21.808Z,65.53
2017-07-09T00:40:47.356Z,65.43
2017-07-09T00:41:12.956Z,65.53
2017-07-09T00:41:38.518Z,65.63
2017-07-09T00:42:04.079Z,65.43
2017-07-09T00:42:29.649Z,65.63
2017-07-09T00:42:55.200Z,65.63
2017-07-09T00:43:20.763Z,65.63
2017-07-09T00:43:46.326Z,65.63
2017-07-09T00:44:11.931Z,65.53
2017-07-09T00:44:37.530Z,65.34
2017-07-09T00:45:03.107Z,65.63
2017-07-09T00:45:28.665Z,65.43
2017-07-09T00:45:54.230Z,65.53
2017-07-09T00:46:19.954Z,65.53
2017-07-09T00:46:45.555Z,65.53
2017-07-09T00:47:11.092Z,65.63
2017-07-09T00:47:36.645Z,65.43
2017-07-09T00:48:02.193Z,65.63
2017-07-09T00:48:27.775Z,65.63
2017-07-09T00:48:53.424Z,65.43
2017-07-09T00:49:19.003Z,65.72
2017-07-09T00:49:44.568Z,65.82
2017-07-09T00:50:10.209Z,65.82
2017-07-09T00:50:35.773Z,65.43
2017-07-09T00:51:01.335Z,65.53
2017-07-09T00:51:26.926Z,65.43
2017-07-09T00:51:52.502Z,65.43
2017-07-09T00:52:18.055Z,65.63
2017-07-09T00:52:43.627Z,65.63
2017-07-09T00:53:09.309Z,65.72
2017-07-09T00:53:34.861Z,65.72
2017-07-09T00:54:00.426Z,65.72
2017-07-09T00:54:26.000Z,65.72
2017-07-09T00:54:51.546Z,65.53
2017-07-09T00:55:17.139Z,65.72
2017-07-09T00:55:42.737Z,65.53
2017-07-09T00:56:08.299Z,65.72
2017-07-09T00:56:33.878Z,65.63
2017-07-09T00:56:59.432Z,65.5
2017-07-09T00:57:24.984Z,65.72
2017-07-09T00:57:50.568Z,65.63
2017-07-09T00:58:16.136Z,65.72
2017-07-09T00:58:41.686Z,65.72
2017-07-09T00:59:07.255Z,65.82
2017-07-09T00:59:32.926Z,65.82
2017-07-09T00:59:58.496Z,65.72
2017-07-09T01:00:24.054Z,65.82
2017-07-09T01:00:49.625Z,65.72
2017-07-09T01:01:15.192Z,65.63
2017-07-09T01:01:40.782Z,65.92
2017-07-09T01:02:06.326Z,66.01
2017-07-09T01:02:31.945Z,65.63
2017-07-09T01:02:57.500Z,65.63
2017-07-09T01:03:23.079Z,65.63
2017-07-09T01:03:48.644Z,65.63
2017-07-09T01:04:14.257Z,65.72
2017-07-09T01:04:39.818Z,65.82
2017-07-09T01:05:05.377Z,65.82
2017-07-09T01:05:30.932Z,65.92
2017-07-09T01:05:56.500Z,65.59
2017-07-09T01:06:22.067Z,65.82
2017-07-09T01:06:47.646Z,65.82
2017-07-09T01:07:13.238Z,65.24
2017-07-09T01:07:38.789Z,65.63
2017-07-09T01:08:04.407Z,66.01
2017-07-09T01:08:30.045Z,65.82
2017-07-09T01:08:55.610Z,65.34
2017-07-09T01:09:21.174Z,65.34
2017-07-09T01:09:46.746Z,65.43
2017-07-09T01:10:12.309Z,65.43
2017-07-09T01:10:37.869Z,65.34
2017-07-09T01:11:03.444Z,65.78
2017-07-09T01:11:29.020Z,65.92
2017-07-09T01:11:54.586Z,65.82
2017-07-09T01:12:20.170Z,65.92
2017-07-09T01:12:45.754Z,65.98
2017-07-09T01:13:11.322Z,65.34
2017-07-09T01:13:36.875Z,65.34
2017-07-09T01:14:02.420Z,65.63
2017-07-09T01:14:27.994Z,65.43
2017-07-09T01:14:53.568Z,65.43
2017-07-09T01:15:19.151Z,65.43
2017-07-09T01:15:44.710Z,65.3
2017-07-09T01:16:10.280Z,65.34
2017-07-09T01:16:35.854Z,65.43
2017-07-09T01:17:01.510Z,65.43
2017-07-09T01:17:27.066Z,65.43
2017-07-09T01:17:52.613Z,65.43
2017-07-09T01:18:18.217Z,65.4
2017-07-09T01:18:43.768Z,65.34
2017-07-09T01:19:09.346Z,65.43
2017-07-09T01:19:34.927Z,65.43
2017-07-09T01:20:00.485Z,65.43
2017-07-09T01:20:26.055Z,65.72
2017-07-09T01:20:51.658Z,65.53
2017-07-09T01:21:17.228Z,65.53
2017-07-09T01:21:42.796Z,65.63
2017-07-09T01:22:08.363Z,65.5
2017-07-09T01:22:33.915Z,65.53
2017-07-09T01:22:59.487Z,65.34
2017-07-09T01:23:25.058Z,65.43
2017-07-09T01:23:50.620Z,65.5
2017-07-09T01:24:16.180Z,65.53
2017-07-09T01:24:41.743Z,65.63
2017-07-09T01:25:07.309Z,65.53
2017-07-09T01:25:32.862Z,65.53
2017-07-09T01:25:58.476Z,65.34
2017-07-09T01:26:24.251Z,65.24
2017-07-09T01:26:49.944Z,65.24
2017-07-09T01:27:15.509Z,65.4
2017-07-09T01:27:41.074Z,65.43
2017-07-09T01:28:06.635Z,65.14
2017-07-09T01:28:32.193Z,65.14
2017-07-09T01:28:57.756Z,65.11
2017-07-09T01:29:23.491Z,65.14
2017-07-09T01:29:49.048Z,65.3
2017-07-09T01:30:14.608Z,65.24
2017-07-09T01:30:40.179Z,65.24
2017-07-09T01:31:05.742Z,65.59
2017-07-09T01:31:31.300Z,65.53
2017-07-09T01:31:56.862Z,65.11
2017-07-09T01:32:22.418Z,65.14
2017-07-09T01:32:47.980Z,65.34
2017-07-09T01:33:13.527Z,65.14
2017-07-09T01:33:39.200Z,65.14
2017-07-09T01:34:04.763Z,65.24
2017-07-09T01:34:30.342Z,65.43
2017-07-09T01:34:55.903Z,65.24
2017-07-09T01:35:21.501Z,65.34
2017-07-09T01:35:47.050Z,65.24
2017-07-09T01:36:12.617Z,65.24
2017-07-09T01:36:38.199Z,65.05
2017-07-09T01:37:03.771Z,65.3
2017-07-09T01:37:29.421Z,65.2
2017-07-09T01:37:54.988Z,65.24
2017-07-09T01:38:20.555Z,65.14
2017-07-09T01:38:46.116Z,65.14
2017-07-09T01:39:11.669Z,65.14
2017-07-09T01:39:37.223Z,65.05
2017-07-09T01:40:02.909Z,65.14
2017-07-09T01:40:28.464Z,65.24
2017-07-09T01:40:54.036Z,65.11
2017-07-09T01:41:19.589Z,65.05
2017-07-09T01:41:45.144Z,65.01
2017-07-09T01:42:10.705Z,65.11
2017-07-09T01:42:36.263Z,65.11
2017-07-09T01:43:01.824Z,64.95
2017-07-09T01:43:27.389Z,65.01
2017-07-09T01:43:53.067Z,65.05
2017-07-09T01:44:18.597Z,64.95
2017-07-09T01:44:44.141Z,65.14
2017-07-09T01:45:58.472Z,65.14
2017-07-09T01:46:24.024Z,65.24
2017-07-09T01:46:49.578Z,65.24
2017-07-09T01:47:15.138Z,65.43
2017-07-09T01:47:40.687Z,65.14
2017-07-09T01:48:06.244Z,65.14
2017-07-09T01:48:31.819Z,65.34
2017-07-09T01:48:57.416Z,65.24
2017-07-09T01:49:22.998Z,65.01
2017-07-09T01:49:48.628Z,65.11
2017-07-09T01:50:14.184Z,65.05
2017-07-09T01:50:39.735Z,65.2
2017-07-09T01:51:33.626Z,65.24
2017-07-09T01:51:59.227Z,65.05
2017-07-09T01:52:24.878Z,65.2
2017-07-09T01:52:50.518Z,65.2
2017-07-09T01:53:16.064Z,65.05
2017-07-09T01:53:41.637Z,65.14
2017-07-09T01:54:07.313Z,65.24
2017-07-09T01:54:32.858Z,65.11
2017-07-09T01:54:58.430Z,65.05
2017-07-09T01:55:23.988Z,65.14
2017-07-09T01:55:49.534Z,65.43
2017-07-09T01:56:15.124Z,65.34
2017-07-09T01:56:40.696Z,65.2
2017-07-09T01:57:06.309Z,65.01
2017-07-09T01:57:31.886Z,64.95
2017-07-09T01:57:57.439Z,65.34
2017-07-09T01:58:22.995Z,65.11
2017-07-09T01:58:48.561Z,65.2
2017-07-09T01:59:14.119Z,65.01
2017-07-09T01:59:39.680Z,65.01
2017-07-09T02:00:05.243Z,65.59
2017-07-09T02:00:30.886Z,64.85
2017-07-09T02:00:56.509Z,65.05
2017-07-09T02:01:22.057Z,65.59
2017-07-09T02:01:47.642Z,64.92
2017-07-09T02:02:13.204Z,65.01
2017-07-09T02:02:38.776Z,65.3
2017-07-09T02:03:04.354Z,64.82
2017-07-09T02:03:29.976Z,65.05
2017-07-09T02:03:55.537Z,64.92
2017-07-09T02:04:21.104Z,64.82
2017-07-09T02:04:46.664Z,64.85
2017-07-09T02:05:12.228Z,64.95
2017-07-09T02:05:37.775Z,64.82
2017-07-09T02:06:03.449Z,64.82
2017-07-09T02:06:28.996Z,64.92
2017-07-09T02:06:54.585Z,65.05
2017-07-09T02:07:20.136Z,64.72
2017-07-09T02:07:45.724Z,64.85
2017-07-09T02:08:11.275Z,64.92
2017-07-09T02:08:36.866Z,65.01
2017-07-09T02:09:02.426Z,64.63
2017-07-09T02:09:27.978Z,65.01
2017-07-09T02:09:53.557Z,65.01
2017-07-09T02:10:19.117Z,64.82
2017-07-09T02:10:44.679Z,65.01
2017-07-09T02:11:10.296Z,64.85
2017-07-09T02:11:35.854Z,64.85
2017-07-09T02:12:01.422Z,64.82
2017-07-09T02:12:27.109Z,64.85
2017-07-09T02:12:52.666Z,64.82
2017-07-09T02:13:18.227Z,64.95
2017-07-09T02:13:43.777Z,65.01
2017-07-09T02:14:09.349Z,65.01
2017-07-09T02:14:34.916Z,64.63
2017-07-09T02:15:00.479Z,65.01
2017-07-09T02:15:26.040Z,64.82
2017-07-09T02:15:51.598Z,64.92
2017-07-09T02:16:17.173Z,64.82
2017-07-09T02:16:42.746Z,65.34
2017-07-09T02:17:08.298Z,65.01
2017-07-09T02:17:33.871Z,64.53
2017-07-09T02:17:59.437Z,64.66
2017-07-09T02:18:25.001Z,65.01
2017-07-09T02:18:50.567Z,64.66
2017-07-09T02:19:16.139Z,65.01
2017-07-09T02:19:41.694Z,65.01
2017-07-09T02:20:07.250Z,64.85
2017-07-09T02:20:32.824Z,64.66
2017-07-09T02:20:58.367Z,65.01
2017-07-09T02:21:23.932Z,64.72
2017-07-09T02:21:49.489Z,64.82
2017-07-09T02:22:15.046Z,64.82
2017-07-09T02:22:40.614Z,65.01
2017-07-09T02:23:06.168Z,64.82
2017-07-09T02:23:31.750Z,64.82
2017-07-09T02:23:57.323Z,64.63
2017-07-09T02:24:22.911Z,64.63
2017-07-09T02:24:48.459Z,64.82
2017-07-09T02:25:14.010Z,64.63
2017-07-09T02:25:39.598Z,64.63
2017-07-09T02:26:05.168Z,64.82
2017-07-09T02:26:30.738Z,64.72
2017-07-09T02:26:56.307Z,64.72
2017-07-09T02:27:21.914Z,64.82
2017-07-09T02:27:47.484Z,64.82
2017-07-09T02:28:13.055Z,64.82
2017-07-09T02:28:38.627Z,65.01
2017-07-09T02:29:04.190Z,65.01
2017-07-09T02:29:29.758Z,64.72
2017-07-09T02:29:55.330Z,64.92
2017-07-09T02:30:20.904Z,64.72
2017-07-09T02:30:46.465Z,65.01
2017-07-09T02:31:12.128Z,65.11
2017-07-09T02:31:37.683Z,65.01
2017-07-09T02:32:03.253Z,64.92
2017-07-09T02:32:28.835Z,64.82
2017-07-09T02:32:54.386Z,65.01
2017-07-09T02:33:19.946Z,64.72
2017-07-09T02:33:45.519Z,64.72
2017-07-09T02:34:11.202Z,64.72
2017-07-09T02:34:36.757Z,64.82
2017-07-09T02:35:02.408Z,65.01
2017-07-09T02:35:27.921Z,64.82
2017-07-09T02:35:53.491Z,65.2
2017-07-09T02:36:25.860Z,64.92
2017-07-09T02:36:51.413Z,64.92
2017-07-09T02:37:17.024Z,64.72
2017-07-09T02:37:42.581Z,64.72
2017-07-09T02:38:08.167Z,64.72
2017-07-09T02:38:33.731Z,65.11
2017-07-09T02:38:59.314Z,65.01
2017-07-09T02:39:24.866Z,65.2
2017-07-09T02:39:50.456Z,64.92
2017-07-09T02:40:15.967Z,65.11
2017-07-09T02:40:41.512Z,64.92
2017-07-09T02:41:07.144Z,65.01
2017-07-09T02:41:32.703Z,65.11
2017-07-09T02:41:58.262Z,64.92
2017-07-09T02:42:23.871Z,65.01
2017-07-09T02:42:49.419Z,65.11
2017-07-09T02:43:14.983Z,64.92
2017-07-09T02:43:40.558Z,65.11
2017-07-09T02:44:06.112Z,65.11
2017-07-09T02:44:31.680Z,65.01
2017-07-09T02:44:57.287Z,65.2
2017-07-09T02:45:22.835Z,65.2
2017-07-09T02:45:48.452Z,65.01
2017-07-09T02:46:14.085Z,64.92
2017-07-09T02:46:39.646Z,65.01
2017-07-09T02:47:05.199Z,64.92
2017-07-09T02:47:30.758Z,65.11
2017-07-09T02:47:56.369Z,64.92
2017-07-09T02:48:21.921Z,64.92
2017-07-09T02:48:47.478Z,65.01
2017-07-09T02:49:13.049Z,65.11
2017-07-09T02:49:38.606Z,65.2
2017-07-09T02:50:04.172Z,65.01
2017-07-09T02:50:29.739Z,64.92
2017-07-09T02:50:55.364Z,64.92
2017-07-09T02:51:20.921Z,64.92
2017-07-09T02:51:46.574Z,65.11
2017-07-09T02:52:12.138Z,64.43
2017-07-09T02:52:37.719Z,64.34
2017-07-09T02:53:03.274Z,64.43
2017-07-09T02:53:28.831Z,65.01
2017-07-09T02:53:54.403Z,65.05
2017-07-09T02:54:20.037Z,65.01
2017-07-09T02:54:45.610Z,65.11
2017-07-09T02:55:11.172Z,64.43
2017-07-09T02:55:36.777Z,64.34
2017-07-09T02:56:02.340Z,64.34
2017-07-09T02:56:27.907Z,64.34
2017-07-09T02:56:53.532Z,64.43
2017-07-09T02:57:19.084Z,64.34
2017-07-09T02:57:44.625Z,64.14
2017-07-09T02:58:10.263Z,64.43
2017-07-09T02:58:35.888Z,64.53
2017-07-09T02:59:01.434Z,65.01
2017-07-09T02:59:26.998Z,64.82
2017-07-09T02:59:52.557Z,65.2
2017-07-09T03:00:18.108Z,64.34
2017-07-09T03:00:43.683Z,64.34
2017-07-09T03:01:09.240Z,64.34
2017-07-09T03:01:34.791Z,64.43
2017-07-09T03:02:00.364Z,64.34
2017-07-09T03:02:25.933Z,64.34
2017-07-09T03:02:51.486Z,64.34
2017-07-09T03:03:17.063Z,64.34
2017-07-09T03:03:42.623Z,64.34
2017-07-09T03:04:08.195Z,64.34
2017-07-09T03:04:33.774Z,64.43
2017-07-09T03:04:59.321Z,64.43
2017-07-09T03:05:24.879Z,64.34
2017-07-09T03:05:50.448Z,64.14
2017-07-09T03:06:15.999Z,64.24
2017-07-09T03:06:41.672Z,64.34
2017-07-09T03:07:07.268Z,65.11
2017-07-09T03:07:33.377Z,64.34
2017-07-09T03:07:58.935Z,64.24
2017-07-09T03:08:24.488Z,64.43
2017-07-09T03:08:50.071Z,64.34
2017-07-09T03:09:15.640Z,64.34
2017-07-09T03:09:41.240Z,64.24
2017-07-09T03:10:06.809Z,64.43
2017-07-09T03:10:32.384Z,64.34
2017-07-09T03:10:58.012Z,64.43
2017-07-09T03:11:23.566Z,64.34
2017-07-09T03:11:49.159Z,64.34
2017-07-09T03:12:14.729Z,64.34
2017-07-09T03:12:40.287Z,64.34
2017-07-09T03:13:05.864Z,64.34
2017-07-09T03:13:31.407Z,64.05
2017-07-09T03:13:56.956Z,64.24
2017-07-09T03:14:22.529Z,63.95
2017-07-09T03:14:48.164Z,63.95
2017-07-09T03:15:13.742Z,64.34
2017-07-09T03:15:39.288Z,64.43
2017-07-09T03:16:04.844Z,64.14
2017-07-09T03:16:30.408Z,64.34
2017-07-09T03:16:55.968Z,64.24
2017-07-09T03:17:21.677Z,63.95
2017-07-09T03:17:47.260Z,64.05
2017-07-09T03:18:12.810Z,64.53
2017-07-09T03:18:38.360Z,64.05
2017-07-09T03:19:03.934Z,64.14
2017-07-09T03:19:29.484Z,64.24
2017-07-09T03:19:55.042Z,64.34
2017-07-09T03:20:20.630Z,64.24
2017-07-09T03:20:46.205Z,63.95
2017-07-09T03:21:11.782Z,64.34
2017-07-09T03:21:37.344Z,64.43
2017-07-09T03:22:02.916Z,64.43
2017-07-09T03:22:28.462Z,63.95
2017-07-09T03:22:54.015Z,64.24
2017-07-09T03:23:19.623Z,64.43
2017-07-09T03:23:45.180Z,63.95
2017-07-09T03:24:10.777Z,64.34
2017-07-09T03:24:36.399Z,64.43
2017-07-09T03:25:01.989Z,64.14
2017-07-09T03:25:27.552Z,64.14
2017-07-09T03:25:55.526Z,64.14
2017-07-09T03:26:22.571Z,64.14
2017-07-09T03:26:52.572Z,64.14
2017-07-09T03:27:22.568Z,64.24
2017-07-09T03:27:48.128Z,64.43
2017-07-09T03:28:13.686Z,64.24
2017-07-09T03:28:39.276Z,64.14
2017-07-09T03:29:04.835Z,64.14
2017-07-09T03:29:30.406Z,64.34
2017-07-09T03:29:55.978Z,64.34
2017-07-09T03:30:21.548Z,64.14
2017-07-09T03:30:47.128Z,64.14
2017-07-09T03:31:12.754Z,64.14
2017-07-09T03:31:38.305Z,64.14
2017-07-09T03:32:03.880Z,64.14
2017-07-09T03:32:29.449Z,64.14
2017-07-09T03:32:55.006Z,64.24
2017-07-09T03:33:20.568Z,64.14
2017-07-09T03:33:46.160Z,64.14
2017-07-09T03:34:11.815Z,64.24
2017-07-09T03:34:37.379Z,64.43
2017-07-09T03:35:02.974Z,64.14
2017-07-09T03:35:28.532Z,64.14
2017-07-09T03:35:54.086Z,64.24
2017-07-09T03:36:19.635Z,64.24
2017-07-09T03:36:45.217Z,64.63
2017-07-09T03:37:10.791Z,64.34
2017-07-09T03:37:36.356Z,64.34
2017-07-09T03:38:01.929Z,64.14
2017-07-09T03:38:27.514Z,64.34
2017-07-09T03:38:53.075Z,64.53
2017-07-09T03:39:18.623Z,64.43
2017-07-09T03:39:44.197Z,64.14
2017-07-09T03:40:09.762Z,64.14
2017-07-09T03:40:35.325Z,64.34
2017-07-09T03:41:00.880Z,64.24
2017-07-09T03:41:26.514Z,64.34
2017-07-09T03:41:52.193Z,64.24
2017-07-09T03:42:17.745Z,64.53
2017-07-09T03:42:43.307Z,64.34
2017-07-09T03:43:08.957Z,64.24
2017-07-09T03:43:34.528Z,64.43
2017-07-09T03:44:00.107Z,64.24
2017-07-09T03:44:25.665Z,64.24
2017-07-09T03:44:51.224Z,64.05
2017-07-09T03:45:16.796Z,64.14
2017-07-09T03:45:42.367Z,64.14
2017-07-09T03:46:07.908Z,64.43
2017-07-09T03:46:33.485Z,64.43
2017-07-09T03:46:59.042Z,64.34
2017-07-09T03:47:24.694Z,64.24
2017-07-09T03:47:50.277Z,64.24
2017-07-09T03:48:15.837Z,64.24
2017-07-09T03:48:41.392Z,64.24
2017-07-09T03:49:06.969Z,64.34
2017-07-09T03:49:32.527Z,64.34
2017-07-09T03:49:58.167Z,64.05
2017-07-09T03:50:23.718Z,63.95
2017-07-09T03:50:49.290Z,64.24
2017-07-09T03:51:14.849Z,64.24
2017-07-09T03:51:40.399Z,63.95
2017-07-09T03:52:06.010Z,64.24
2017-07-09T03:52:31.576Z,63.85
2017-07-09T03:52:57.127Z,64.24
2017-07-09T03:53:22.692Z,63.95
2017-07-09T03:53:48.276Z,63.95
2017-07-09T03:54:13.826Z,64.24
2017-07-09T03:54:39.419Z,63.85
2017-07-09T03:55:05.063Z,63.85
2017-07-09T03:55:30.617Z,64.24
2017-07-09T03:55:56.241Z,64.14
2017-07-09T03:57:10.537Z,63.85
2017-07-09T03:57:36.117Z,64.24
2017-07-09T03:58:01.682Z,63.95
2017-07-09T03:58:27.231Z,63.85
2017-07-09T03:58:52.781Z,63.95
2017-07-09T03:59:18.355Z,63.76
2017-07-09T03:59:43.956Z,63.95
2017-07-09T04:00:09.511Z,64.05
2017-07-09T04:00:35.088Z,64.24
2017-07-09T04:01:00.653Z,64.05
2017-07-09T04:01:26.233Z,63.95
2017-07-09T04:01:51.810Z,63.85
2017-07-09T04:02:17.367Z,63.95
2017-07-09T04:02:43.043Z,64.14
2017-07-09T04:03:08.609Z,63.76
2017-07-09T04:03:34.174Z,63.76
2017-07-09T04:03:59.732Z,63.95
2017-07-09T04:04:25.431Z,63.76
2017-07-09T04:04:51.015Z,63.95
2017-07-09T04:05:16.593Z,63.95
2017-07-09T04:05:42.156Z,63.85
2017-07-09T04:06:07.707Z,63.85
2017-07-09T04:06:33.269Z,63.95
2017-07-09T04:06:58.829Z,63.95
2017-07-09T04:07:24.494Z,63.95
2017-07-09T04:07:50.051Z,63.95
2017-07-09T04:08:15.611Z,64.24
2017-07-09T04:08:41.211Z,63.95
2017-07-09T04:09:06.761Z,63.95
2017-07-09T04:09:32.320Z,63.76
2017-07-09T04:09:57.931Z,63.85
2017-07-09T04:10:23.495Z,63.95
2017-07-09T04:10:49.054Z,64.05
2017-07-09T04:11:14.612Z,64.05
2017-07-09T04:11:40.175Z,63.85
2017-07-09T04:12:05.763Z,63.85
2017-07-09T04:12:31.317Z,64.05
2017-07-09T04:12:56.893Z,63.95
2017-07-09T04:13:22.456Z,63.76
2017-07-09T04:13:48.039Z,63.76
2017-07-09T04:14:13.613Z,64.14
2017-07-09T04:14:39.180Z,63.95
2017-07-09T04:15:04.879Z,63.76
2017-07-09T04:15:30.428Z,63.66
2017-07-09T04:15:56.006Z,63.95
2017-07-09T04:16:21.612Z,64.24
2017-07-09T04:16:47.199Z,63.66
2017-07-09T04:17:12.781Z,63.76
2017-07-09T04:17:38.351Z,64.24
2017-07-09T04:18:03.879Z,63.95
2017-07-09T04:18:29.435Z,64.14
2017-07-09T04:18:54.999Z,63.76
2017-07-09T04:19:20.618Z,64.53
2017-07-09T04:19:46.184Z,63.76
2017-07-09T04:20:11.753Z,63.95
2017-07-09T04:21:20.956Z,63.66
2017-07-09T04:21:46.514Z,63.76
2017-07-09T04:22:12.081Z,63.76
2017-07-09T04:22:37.635Z,63.76
2017-07-09T04:23:03.204Z,64.24
2017-07-09T04:23:28.750Z,63.85
2017-07-09T04:23:54.392Z,64.24
2017-07-09T04:24:19.986Z,64.24
2017-07-09T04:24:45.637Z,64.05
2017-07-09T04:25:11.186Z,63.95
2017-07-09T04:25:36.751Z,63.76
2017-07-09T04:26:02.349Z,63.66
2017-07-09T04:26:27.960Z,63.95
2017-07-09T04:26:53.521Z,64.14
2017-07-09T04:27:19.087Z,63.76
2017-07-09T04:27:44.634Z,63.66
2017-07-09T04:28:10.207Z,63.95
2017-07-09T04:28:35.775Z,63.76
2017-07-09T04:29:01.325Z,64.34
2017-07-09T04:29:26.917Z,63.85
2017-07-09T04:29:52.540Z,63.85
2017-07-09T04:30:18.241Z,63.95
2017-07-09T04:30:43.792Z,63.95
2017-07-09T04:31:09.351Z,63.85
2017-07-09T04:31:34.919Z,63.95
2017-07-09T04:32:00.484Z,63.66
2017-07-09T04:32:26.052Z,63.95
2017-07-09T04:32:51.606Z,63.85
2017-07-09T04:33:17.158Z,63.76
2017-07-09T04:33:42.792Z,63.85
2017-07-09T04:34:08.364Z,63.95
2017-07-09T04:34:33.916Z,64.24
2017-07-09T04:34:59.472Z,63.95
2017-07-09T04:35:25.071Z,64.63
2017-07-09T04:35:50.629Z,63.76
2017-07-09T04:36:16.225Z,63.95
2017-07-09T04:37:10.065Z,63.76
2017-07-09T04:37:35.643Z,63.76
2017-07-09T04:38:01.285Z,63.85
2017-07-09T04:38:26.943Z,63.76
2017-07-09T04:38:52.498Z,64.14
2017-07-09T04:39:18.065Z,63.95
2017-07-09T04:39:43.633Z,63.95
2017-07-09T04:40:09.206Z,63.66
2017-07-09T04:40:34.763Z,63.76
2017-07-09T04:41:00.313Z,63.85
2017-07-09T04:41:25.896Z,63.76
2017-07-09T04:41:51.454Z,63.95
2017-07-09T04:42:17.039Z,63.85
2017-07-09T04:42:42.611Z,63.76
2017-07-09T04:43:08.169Z,63.85
2017-07-09T04:43:33.776Z,63.76
2017-07-09T04:43:59.399Z,63.85
2017-07-09T04:44:24.944Z,63.66
2017-07-09T04:44:50.506Z,63.76
2017-07-09T04:45:16.071Z,64.24
2017-07-09T04:45:41.623Z,63.95
2017-07-09T04:46:07.182Z,63.85
2017-07-09T04:46:32.747Z,63.95
2017-07-09T04:46:58.314Z,63.95
2017-07-09T04:47:24.006Z,63.95
2017-07-09T04:47:49.554Z,64.24
2017-07-09T04:48:15.127Z,64.24
2017-07-09T04:48:40.681Z,64.24
2017-07-09T04:49:06.333Z,63.95
2017-07-09T04:49:31.890Z,63.85
2017-07-09T04:49:57.467Z,63.95
2017-07-09T04:50:23.042Z,64.24
2017-07-09T04:50:48.588Z,64.05
2017-07-09T04:51:14.143Z,63.95
2017-07-09T04:51:39.712Z,63.95
2017-07-09T04:52:05.265Z,63.95
2017-07-09T04:52:30.867Z,63.95
2017-07-09T04:52:56.519Z,63.76
2017-07-09T04:53:22.096Z,64.34
2017-07-09T04:53:47.656Z,64.05
2017-07-09T04:54:13.222Z,64.24
2017-07-09T04:54:38.767Z,63.95
2017-07-09T04:55:04.343Z,63.95
2017-07-09T04:55:29.926Z,63.85
2017-07-09T04:55:55.486Z,63.85
2017-07-09T04:56:21.049Z,63.95
2017-07-09T04:56:46.659Z,64.05
2017-07-09T04:57:12.226Z,63.95
2017-07-09T04:57:37.797Z,63.95
2017-07-09T04:58:03.347Z,64.14
2017-07-09T04:58:29.001Z,63.85
2017-07-09T04:58:54.557Z,64.24
2017-07-09T04:59:20.153Z,64.24
2017-07-09T04:59:45.717Z,64.05
2017-07-09T05:00:11.274Z,63.95
2017-07-09T05:00:36.840Z,64.24
2017-07-09T05:01:02.424Z,64.24
2017-07-09T05:01:27.989Z,64.05
2017-07-09T05:01:53.570Z,63.66
2017-07-09T05:02:19.114Z,64.05
2017-07-09T05:02:44.668Z,63.85
2017-07-09T05:03:10.241Z,63.85
2017-07-09T05:03:35.792Z,63.95
2017-07-09T05:04:01.362Z,63.76
2017-07-09T05:04:26.931Z,63.76
2017-07-09T05:04:52.498Z,63.95
2017-07-09T05:05:18.057Z,63.95
2017-07-09T05:05:43.611Z,63.85
2017-07-09T05:06:09.166Z,63.76
2017-07-09T05:06:34.781Z,63.95
2017-07-09T05:07:00.353Z,64.24
2017-07-09T05:07:25.908Z,64.24
2017-07-09T05:07:51.577Z,64.24
2017-07-09T05:08:17.140Z,63.95
2017-07-09T05:08:42.682Z,63.95
2017-07-09T05:09:08.253Z,64.05
2017-07-09T05:09:33.826Z,63.85
2017-07-09T05:09:59.390Z,63.95
2017-07-09T05:10:24.944Z,63.95
2017-07-09T05:10:50.506Z,63.85
2017-07-09T05:11:16.051Z,64.24
2017-07-09T05:11:41.606Z,63.85
2017-07-09T05:12:07.162Z,63.85
2017-07-09T05:12:32.732Z,63.95
2017-07-09T05:12:58.286Z,63.85
2017-07-09T05:13:23.851Z,63.95
2017-07-09T05:13:49.419Z,64.14
2017-07-09T05:14:15.005Z,63.95
2017-07-09T05:14:40.554Z,64.24
2017-07-09T05:15:06.109Z,64.24
2017-07-09T05:15:31.676Z,64.43
2017-07-09T05:15:57.248Z,64.14
2017-07-09T05:16:22.800Z,64.14
2017-07-09T05:16:48.369Z,64.43
2017-07-09T05:17:13.952Z,64.34
2017-07-09T05:17:39.507Z,64.14
2017-07-09T05:18:05.095Z,64.14
2017-07-09T05:18:30.671Z,64.24
2017-07-09T05:18:56.274Z,64.24
2017-07-09T05:19:21.892Z,64.53
2017-07-09T05:19:47.447Z,64.53
2017-07-09T05:20:12.999Z,64.34
2017-07-09T05:20:38.553Z,64.34
2017-07-09T05:21:04.110Z,64.24
2017-07-09T05:21:29.678Z,64.24
2017-07-09T05:21:55.255Z,64.34
2017-07-09T05:22:20.827Z,64.14
2017-07-09T05:22:46.402Z,64.34
2017-07-09T05:23:11.970Z,64.24
2017-07-09T05:23:37.535Z,64.34
2017-07-09T05:24:03.118Z,64.24
2017-07-09T05:24:28.772Z,64.34
2017-07-09T05:24:54.345Z,64.24
2017-07-09T05:25:19.930Z,64.24
2017-07-09T05:25:45.488Z,63.95
2017-07-09T05:26:11.051Z,64.05
2017-07-09T05:26:36.613Z,64.14
2017-07-09T05:27:02.172Z,63.95
2017-07-09T05:27:27.745Z,64.05
2017-07-09T05:27:53.297Z,63.95
2017-07-09T05:28:18.896Z,64.24
2017-07-09T05:28:44.455Z,64.14
2017-07-09T05:29:10.017Z,64.34
2017-07-09T05:29:35.568Z,64.24
2017-07-09T05:30:01.127Z,63.95
2017-07-09T05:30:26.690Z,63.85
2017-07-09T05:30:52.378Z,64.34
2017-07-09T05:31:18.017Z,63.95
2017-07-09T05:31:43.617Z,63.95
2017-07-09T05:32:09.179Z,64.34
2017-07-09T05:32:34.741Z,63.85
2017-07-09T05:33:00.380Z,64.24
2017-07-09T05:33:25.892Z,64.43